createdAt,value
2023-10-23T00:01:59.027Z,1.15
2023-10-23T00:04:26.253Z,1.50
2023-10-23T00:06:53.474Z,1.50
2023-10-23T00:09:21.561Z,1.20
2023-10-23T00:11:48.614Z,1.33
2023-10-23T00:14:15.592Z,1.23
2023-10-23T00:16:42.614Z,1.15
2023-10-23T00:19:09.612Z,0.82
2023-10-23T00:21:36.641Z,0.90
2023-10-23T00:24:03.912Z,0.88
2023-10-23T00:26:30.869Z,0.95
2023-10-23T00:28:59.127Z,1.63
2023-10-23T00:31:26.200Z,0.82
2023-10-23T00:33:53.369Z,1.20
2023-10-23T00:36:20.551Z,1.05
2023-10-23T00:38:47.668Z,1.55
2023-10-23T00:41:15.382Z,1.25
2023-10-23T00:43:42.529Z,1.20
2023-10-23T00:46:16.125Z,1.02
2023-10-23T00:48:44.137Z,1.67
2023-10-23T00:51:13.390Z,1.40
2023-10-23T00:53:42.821Z,1.48
2023-10-23T00:56:11.820Z,1.42
2023-10-23T00:58:41.435Z,1.52
2023-10-23T01:01:14.255Z,1.33
2023-10-23T01:03:42.933Z,1.30
2023-10-23T01:06:11.154Z,1.13
2023-10-23T01:08:38.750Z,1.30
2023-10-23T01:11:06.430Z,1.10
2023-10-23T01:13:33.586Z,1.10
2023-10-23T01:16:00.572Z,1.23
2023-10-23T01:18:27.720Z,1.45
2023-10-23T01:20:54.857Z,1.17
2023-10-23T01:23:29.686Z,1.23
2023-10-23T01:25:56.667Z,1.00
2023-10-23T01:28:23.685Z,0.82
2023-10-23T01:30:50.832Z,1.17
2023-10-23T01:33:18.069Z,1.25
2023-10-23T01:35:45.260Z,1.20
2023-10-23T01:38:15.809Z,1.55
2023-10-23T01:40:42.814Z,1.55
2023-10-23T01:43:09.845Z,1.17
2023-10-23T01:45:37.347Z,1.63
2023-10-23T01:48:05.215Z,1.17
2023-10-23T01:50:32.344Z,1.67
2023-10-23T01:52:59.333Z,1.60
2023-10-23T01:55:26.337Z,1.30
2023-10-23T01:57:53.334Z,1.60
2023-10-23T02:00:20.447Z,1.38
2023-10-23T02:02:47.547Z,1.77
2023-10-23T02:05:14.596Z,1.50
2023-10-23T02:07:41.629Z,1.42
2023-10-23T02:10:09.278Z,1.73
2023-10-23T02:12:36.476Z,1.38
2023-10-23T02:15:05.300Z,1.92
2023-10-23T02:17:33.250Z,1.80
2023-10-23T02:20:00.522Z,1.60
2023-10-23T02:22:27.598Z,2.00
2023-10-23T02:24:54.704Z,1.30
2023-10-23T02:27:21.745Z,1.80
2023-10-23T02:29:48.709Z,2.00
2023-10-23T02:32:15.971Z,2.08
2023-10-23T02:34:44.175Z,1.40
2023-10-23T02:37:11.206Z,2.03
2023-10-23T02:39:38.534Z,1.92
2023-10-23T02:42:05.905Z,2.30
2023-10-23T02:44:32.893Z,1.67
2023-10-23T02:46:59.889Z,1.65
2023-10-23T02:49:26.912Z,1.63
2023-10-23T02:51:54.024Z,1.70
2023-10-23T02:54:21.125Z,1.92
2023-10-23T02:56:48.171Z,1.73
2023-10-23T02:59:15.237Z,1.80
2023-10-23T03:01:42.358Z,1.92
2023-10-23T03:04:09.530Z,2.00
2023-10-23T03:06:36.672Z,2.30
2023-10-23T03:09:04.449Z,2.05
2023-10-23T03:11:32.145Z,1.95
2023-10-23T03:14:02.169Z,1.95
2023-10-23T03:16:30.373Z,2.23
2023-10-23T03:18:57.481Z,2.38
2023-10-23T03:21:24.473Z,2.08
2023-10-23T03:23:51.904Z,1.90
2023-10-23T03:26:19.056Z,1.58
2023-10-23T03:28:46.164Z,1.60
2023-10-23T03:31:13.269Z,2.35
2023-10-23T03:33:41.344Z,2.08
2023-10-23T03:36:08.661Z,2.47
2023-10-23T03:38:35.821Z,2.22
2023-10-23T03:41:03.186Z,2.53
2023-10-23T03:43:30.249Z,2.10
2023-10-23T03:46:01.847Z,1.48
2023-10-23T03:48:28.983Z,2.15
2023-10-23T03:50:59.940Z,2.25
2023-10-23T03:55:53.902Z,2.35
2023-10-23T03:58:20.972Z,2.17
2023-10-23T04:00:52.058Z,2.65
2023-10-23T04:03:19.055Z,2.33
2023-10-23T04:05:46.120Z,1.98
2023-10-23T04:08:13.185Z,2.58
2023-10-23T04:10:49.642Z,1.73
2023-10-23T04:13:17.467Z,2.58
2023-10-23T04:15:58.802Z,1.80
2023-10-23T04:18:26.849Z,1.95
2023-10-23T04:21:07.564Z,2.20
2023-10-23T04:23:38.743Z,3.05
2023-10-23T04:26:07.504Z,2.58
2023-10-23T04:28:35.301Z,2.33
2023-10-23T04:31:02.594Z,2.40
2023-10-23T04:33:29.622Z,3.00
2023-10-23T04:35:58.525Z,2.10
2023-10-23T04:38:28.779Z,2.42
2023-10-23T04:40:55.919Z,1.90
2023-10-23T04:43:23.586Z,2.10
2023-10-23T04:45:51.022Z,2.15
2023-10-23T04:48:18.027Z,2.20
2023-10-23T04:50:44.993Z,2.58
2023-10-23T04:53:12.021Z,1.95
2023-10-23T04:55:41.617Z,2.80
2023-10-23T04:58:10.302Z,2.33
2023-10-23T05:00:39.257Z,3.95
2023-10-23T05:03:07.137Z,3.05
2023-10-23T05:05:35.151Z,5.28
2023-10-23T05:08:02.166Z,3.40
2023-10-23T05:10:30.288Z,2.63
2023-10-23T05:12:58.151Z,2.22
2023-10-23T05:15:25.495Z,2.75
2023-10-23T05:17:52.696Z,2.55
2023-10-23T05:20:19.820Z,2.22
2023-10-23T05:22:46.779Z,2.05
2023-10-23T05:25:13.893Z,1.98
2023-10-23T05:27:40.986Z,2.45
2023-10-23T05:30:08.763Z,1.95
2023-10-23T05:32:36.236Z,2.15
2023-10-23T05:35:05.256Z,2.30
2023-10-23T05:37:36.260Z,2.22
2023-10-23T05:42:33.523Z,1.95
2023-10-23T05:45:01.438Z,2.42
2023-10-23T05:47:29.553Z,1.60
2023-10-23T05:49:56.590Z,1.80
2023-10-23T05:52:23.635Z,2.25
2023-10-23T05:54:50.637Z,2.13
2023-10-23T05:57:17.656Z,1.83
2023-10-23T05:59:44.647Z,1.63
2023-10-23T06:02:13.945Z,1.70
2023-10-23T06:04:45.912Z,1.40
2023-10-23T06:07:14.099Z,1.98
2023-10-23T06:09:41.909Z,1.95
2023-10-23T06:12:10.443Z,1.63
2023-10-23T06:14:37.768Z,1.85
2023-10-23T06:17:04.970Z,1.77
2023-10-23T06:19:32.743Z,1.58
2023-10-23T06:22:00.558Z,2.10
2023-10-23T06:24:28.456Z,1.70
2023-10-23T06:26:55.549Z,1.20
2023-10-23T06:29:22.577Z,1.30
2023-10-23T06:31:49.620Z,1.27
2023-10-23T06:34:16.631Z,1.40
2023-10-23T06:36:44.404Z,1.10
2023-10-23T06:39:13.837Z,1.02
2023-10-23T06:41:40.862Z,1.67
2023-10-23T06:44:07.855Z,1.48
2023-10-23T06:46:35.202Z,1.10
2023-10-23T06:49:02.220Z,0.95
2023-10-23T06:51:29.188Z,1.27
2023-10-23T06:53:56.185Z,1.42
2023-10-23T06:56:23.492Z,1.20
2023-10-23T06:58:50.531Z,1.63
2023-10-23T07:01:23.710Z,1.27
2023-10-23T07:03:57.554Z,1.40
2023-10-23T07:06:24.713Z,1.83
2023-10-23T07:08:51.791Z,1.60
2023-10-23T07:11:23.532Z,1.40
2023-10-23T07:13:50.536Z,1.20
2023-10-23T07:16:17.781Z,1.20
2023-10-23T07:18:46.517Z,0.98
2023-10-23T07:21:16.172Z,1.35
2023-10-23T07:23:43.491Z,1.83
2023-10-23T07:26:13.394Z,2.03
2023-10-23T07:28:41.635Z,2.58
2023-10-23T07:31:10.469Z,2.70
2023-10-23T07:33:37.992Z,2.53
2023-10-23T07:36:10.223Z,2.00
2023-10-23T07:38:39.492Z,1.50
2023-10-23T07:41:06.497Z,1.15
2023-10-23T07:43:33.709Z,1.77
2023-10-23T07:46:16.703Z,1.20
2023-10-23T07:48:45.490Z,1.25
2023-10-23T07:51:12.694Z,1.25
2023-10-23T07:53:39.754Z,1.45
2023-10-23T07:56:07.199Z,0.98
2023-10-23T07:58:34.795Z,1.00
2023-10-23T08:01:09.934Z,1.17
2023-10-23T08:03:37.951Z,1.33
2023-10-23T08:06:08.438Z,1.05
2023-10-23T08:08:37.446Z,1.00
2023-10-23T08:11:06.551Z,1.05
2023-10-23T08:13:34.760Z,1.00
2023-10-23T08:16:04.528Z,1.10
2023-10-23T08:18:38.954Z,1.02
2023-10-23T08:21:12.333Z,1.20
2023-10-23T08:23:41.135Z,0.95
2023-10-23T08:26:08.444Z,1.20
2023-10-23T08:28:58.368Z,1.17
2023-10-23T08:31:37.031Z,1.42
2023-10-23T08:34:08.024Z,1.15
2023-10-23T08:36:35.523Z,1.13
2023-10-23T08:39:04.106Z,1.05
2023-10-23T08:41:32.605Z,1.20
2023-10-23T08:44:00.035Z,1.58
2023-10-23T08:46:32.999Z,1.10
2023-10-23T08:49:04.982Z,0.90
2023-10-23T08:51:32.485Z,0.80
2023-10-23T08:54:11.853Z,1.08
2023-10-23T08:56:43.391Z,1.20
2023-10-23T09:01:39.558Z,1.08
2023-10-23T09:04:08.302Z,1.00
2023-10-23T09:06:36.914Z,1.05
2023-10-23T09:09:08.235Z,1.00
2023-10-23T09:14:06.788Z,0.88
2023-10-23T09:16:34.177Z,1.00
2023-10-23T09:19:01.341Z,0.90
2023-10-23T09:21:29.098Z,1.10
2023-10-23T09:24:04.404Z,0.88
2023-10-23T09:26:31.473Z,1.45
2023-10-23T09:28:58.486Z,2.05
2023-10-23T09:31:25.647Z,2.83
2023-10-23T09:33:52.967Z,2.42
2023-10-23T09:36:21.861Z,2.60
2023-10-23T09:39:00.858Z,2.28
2023-10-23T09:41:29.103Z,1.70
2023-10-23T09:44:01.776Z,1.13
2023-10-23T09:46:30.411Z,1.15
2023-10-23T09:49:04.580Z,1.02
2023-10-23T09:51:41.308Z,1.35
2023-10-23T09:54:16.863Z,1.30
2023-10-23T09:56:50.023Z,0.95
2023-10-23T09:59:20.102Z,1.10
2023-10-23T10:01:51.528Z,1.05
2023-10-23T10:04:31.288Z,1.42
2023-10-23T10:07:23.646Z,1.10
2023-10-23T10:09:51.220Z,0.85
2023-10-23T10:12:19.811Z,1.20
2023-10-23T10:14:48.152Z,1.42
2023-10-23T10:17:20.440Z,1.33
2023-10-23T10:19:48.494Z,1.42
2023-10-23T10:22:29.473Z,1.05
2023-10-23T10:27:26.170Z,1.20
2023-10-23T10:29:53.272Z,1.10
2023-10-23T10:32:23.983Z,1.10
2023-10-23T10:34:57.812Z,1.40
2023-10-23T10:37:32.283Z,1.20
2023-10-23T10:39:59.263Z,1.00
2023-10-23T10:42:30.677Z,1.25
2023-10-23T10:45:08.971Z,1.08
2023-10-23T10:47:38.258Z,1.00
2023-10-23T10:50:06.340Z,1.00
2023-10-23T10:52:38.943Z,1.40
2023-10-23T10:55:10.309Z,1.58
2023-10-23T10:57:43.846Z,1.20
2023-10-23T11:00:13.015Z,0.88
2023-10-23T11:02:40.880Z,1.23
2023-10-23T11:05:13.044Z,1.20
2023-10-23T11:07:40.175Z,0.70
2023-10-23T11:10:08.158Z,1.10
2023-10-23T11:12:35.217Z,1.20
2023-10-23T11:15:05.222Z,1.15
2023-10-23T11:17:32.344Z,1.43
2023-10-23T11:20:00.089Z,1.23
2023-10-23T11:22:27.316Z,1.00
2023-10-23T11:24:54.416Z,0.98
2023-10-23T11:27:21.892Z,1.15
2023-10-23T11:29:49.337Z,1.50
2023-10-23T11:32:18.274Z,1.35
2023-10-23T11:34:48.737Z,1.45
2023-10-23T11:37:15.831Z,1.20
2023-10-23T11:39:43.547Z,1.40
2023-10-23T11:42:11.803Z,1.00
2023-10-23T11:44:41.012Z,1.17
2023-10-23T11:47:08.996Z,1.50
2023-10-23T11:49:36.526Z,1.02
2023-10-23T11:52:04.073Z,1.08
2023-10-23T11:54:31.194Z,1.30
2023-10-23T11:57:00.344Z,1.25
2023-10-23T11:59:28.179Z,1.33
2023-10-23T12:01:59.429Z,1.33
2023-10-23T12:04:26.727Z,1.13
2023-10-23T12:06:53.897Z,1.50
2023-10-23T12:09:20.921Z,1.20
2023-10-23T12:11:47.897Z,1.05
2023-10-23T12:14:14.872Z,1.00
2023-10-23T12:16:41.901Z,1.50
2023-10-23T12:19:10.663Z,0.98
2023-10-23T12:21:38.375Z,1.15
2023-10-23T12:28:11.800Z,1.10
2023-10-23T12:30:38.854Z,0.75
2023-10-23T12:33:19.096Z,1.20
2023-10-23T12:35:53.230Z,1.10
2023-10-23T12:38:20.230Z,0.90
2023-10-23T12:40:49.700Z,1.20
2023-10-23T12:43:16.819Z,1.05
2023-10-23T12:45:44.055Z,1.50
2023-10-23T12:48:11.716Z,1.42
2023-10-23T12:50:39.080Z,1.30
2023-10-23T12:53:06.593Z,1.20
2023-10-23T12:55:33.668Z,0.93
2023-10-23T12:58:03.886Z,1.17
2023-10-23T13:00:34.150Z,0.90
2023-10-23T13:03:01.204Z,1.00
2023-10-23T13:05:28.286Z,1.30
2023-10-23T13:07:55.756Z,0.90
2023-10-23T13:10:22.801Z,1.45
2023-10-23T13:12:49.829Z,1.30
2023-10-23T13:15:22.268Z,1.00
2023-10-23T13:17:49.416Z,1.00
2023-10-23T13:20:51.637Z,0.98
2023-10-23T13:23:03.931Z,1.50
2023-10-23T13:25:31.016Z,1.40
2023-10-23T13:27:58.081Z,1.30
2023-10-23T13:30:25.236Z,1.00
2023-10-23T13:32:52.380Z,1.50
2023-10-23T13:35:19.541Z,1.80
2023-10-23T13:37:46.875Z,1.13
2023-10-23T13:40:14.049Z,1.20
2023-10-23T13:42:41.120Z,1.05
2023-10-23T13:45:09.077Z,1.00
2023-10-23T13:47:36.173Z,1.23
2023-10-23T13:50:03.212Z,1.00
2023-10-23T13:52:30.314Z,1.65
2023-10-23T13:54:57.567Z,1.15
2023-10-23T13:57:26.085Z,1.10
2023-10-23T13:59:53.149Z,0.80
2023-10-23T14:02:20.451Z,0.90
2023-10-23T14:04:49.509Z,1.40
2023-10-23T14:07:16.684Z,1.33
2023-10-23T14:09:47.211Z,0.95
2023-10-23T14:12:17.160Z,1.60
2023-10-23T14:14:44.479Z,1.05
2023-10-23T14:17:11.549Z,0.77
2023-10-23T14:19:47.984Z,1.05
2023-10-23T14:22:17.667Z,1.20
2023-10-23T14:24:44.818Z,1.20
2023-10-23T14:27:11.936Z,1.00
2023-10-23T14:29:39.139Z,1.17
2023-10-23T14:32:07.345Z,0.93
2023-10-23T14:34:34.486Z,1.05
2023-10-23T14:37:01.853Z,1.30
2023-10-23T14:39:29.125Z,1.25
2023-10-23T14:41:56.740Z,1.15
2023-10-23T14:44:32.926Z,1.20
2023-10-23T14:47:00.017Z,1.10
2023-10-23T14:49:27.704Z,1.38
2023-10-23T14:51:55.035Z,1.10
2023-10-23T14:54:22.162Z,1.30
2023-10-23T14:56:50.945Z,1.20
2023-10-23T14:59:18.541Z,1.10
2023-10-23T15:01:52.174Z,1.33
2023-10-23T15:04:19.309Z,0.88
2023-10-23T15:06:46.416Z,1.27
2023-10-23T15:09:13.403Z,0.98
2023-10-23T15:11:40.382Z,1.05
2023-10-23T15:14:08.268Z,0.90
2023-10-23T15:16:36.999Z,1.13
2023-10-23T15:19:04.770Z,1.50
2023-10-23T15:21:31.885Z,1.33
2023-10-23T15:23:59.655Z,1.40
2023-10-23T15:26:26.880Z,1.23
2023-10-23T15:28:54.342Z,1.17
2023-10-23T15:31:21.423Z,1.05
2023-10-23T15:33:48.520Z,1.17
2023-10-23T15:36:15.560Z,1.60
2023-10-23T15:38:43.130Z,1.27
2023-10-23T15:41:12.840Z,1.42
2023-10-23T15:43:41.755Z,1.02
2023-10-23T15:46:14.775Z,1.85
2023-10-23T15:48:42.510Z,1.27
2023-10-23T15:51:10.280Z,1.33
2023-10-23T15:53:37.668Z,1.30
2023-10-23T15:56:05.211Z,1.10
2023-10-23T15:58:33.184Z,1.25
2023-10-23T16:01:04.561Z,1.77
2023-10-23T16:03:35.343Z,1.40
2023-10-23T16:08:31.671Z,1.63
2023-10-23T16:11:00.850Z,1.10
2023-10-23T16:13:32.005Z,1.55
2023-10-23T16:16:15.886Z,2.17
2023-10-23T16:18:45.440Z,1.67
2023-10-23T16:21:15.158Z,1.85
2023-10-23T16:23:42.536Z,1.65
2023-10-23T16:26:09.719Z,1.60
2023-10-23T16:28:36.854Z,1.70
2023-10-23T16:31:04.259Z,1.48
2023-10-23T16:33:31.367Z,1.55
2023-10-23T16:35:58.356Z,1.30
2023-10-23T16:38:25.442Z,1.92
2023-10-23T16:40:52.489Z,1.50
2023-10-23T16:43:20.050Z,1.80
2023-10-23T16:45:47.181Z,1.38
2023-10-23T16:48:14.301Z,1.48
2023-10-23T16:50:41.886Z,1.33
2023-10-23T16:53:08.908Z,1.77
2023-10-23T16:55:38.917Z,1.55
2023-10-23T16:58:05.903Z,1.53
2023-10-23T17:00:33.256Z,1.48
2023-10-23T17:03:02.764Z,1.98
2023-10-23T17:05:29.893Z,1.90
2023-10-23T17:07:57.225Z,1.88
2023-10-23T17:10:24.245Z,2.03
2023-10-23T17:12:51.302Z,1.52
2023-10-23T17:15:18.427Z,1.50
2023-10-23T17:17:45.450Z,2.20
2023-10-23T17:20:12.732Z,1.90
2023-10-23T17:22:39.938Z,1.35
2023-10-23T17:25:08.948Z,3.17
2023-10-23T17:27:36.680Z,2.08
2023-10-23T17:30:04.343Z,2.22
2023-10-23T17:32:31.852Z,1.73
2023-10-23T17:34:59.011Z,1.60
2023-10-23T17:37:26.022Z,1.70
2023-10-23T17:39:53.060Z,1.65
2023-10-23T17:42:20.074Z,1.58
2023-10-23T17:44:47.267Z,1.17
2023-10-23T17:47:14.516Z,1.70
2023-10-23T17:49:41.851Z,1.52
2023-10-23T17:52:10.177Z,1.50
2023-10-23T17:54:38.587Z,1.40
2023-10-23T17:57:05.818Z,1.30
2023-10-23T17:59:34.513Z,1.63
2023-10-23T18:02:01.749Z,1.83
2023-10-23T18:04:29.069Z,1.30
2023-10-23T18:06:56.128Z,1.23
2023-10-23T18:09:23.204Z,1.40
2023-10-23T18:11:50.218Z,1.58
2023-10-23T18:14:17.242Z,1.50
2023-10-23T18:16:46.514Z,1.40
2023-10-23T18:19:16.142Z,1.27
2023-10-23T18:21:44.062Z,1.45
2023-10-23T18:24:13.396Z,1.27
2023-10-23T18:26:40.407Z,1.35
2023-10-23T18:29:07.528Z,1.55
2023-10-23T18:31:34.734Z,1.35
2023-10-23T18:34:01.822Z,1.02
2023-10-23T18:36:29.255Z,1.10
2023-10-23T18:38:56.441Z,1.17
2023-10-23T18:41:23.477Z,1.30
2023-10-23T18:43:50.588Z,1.58
2023-10-23T18:46:17.819Z,1.30
2023-10-23T18:48:45.223Z,1.30
2023-10-23T18:51:13.563Z,1.55
2023-10-23T18:53:43.317Z,1.38
2023-10-23T18:56:10.580Z,1.38
2023-10-23T18:58:37.589Z,1.55
2023-10-23T19:01:08.965Z,1.23
2023-10-23T19:03:38.489Z,1.30
2023-10-23T19:06:06.461Z,1.30
2023-10-23T19:08:33.533Z,1.30
2023-10-23T19:11:00.727Z,1.27
2023-10-23T19:13:27.978Z,0.82
2023-10-23T19:15:59.988Z,1.77
2023-10-23T19:18:30.154Z,1.05
2023-10-23T19:21:04.084Z,1.67
2023-10-23T19:23:31.068Z,1.27
2023-10-23T19:25:58.157Z,1.48
2023-10-23T19:28:25.783Z,1.48
2023-10-23T19:30:54.668Z,1.73
2023-10-23T19:33:22.432Z,1.60
2023-10-23T19:35:49.824Z,2.05
2023-10-23T19:38:20.924Z,1.90
2023-10-23T19:40:51.989Z,1.40
2023-10-23T19:43:26.065Z,1.77
2023-10-23T19:45:53.465Z,1.98
2023-10-23T19:48:21.040Z,1.95
2023-10-23T19:50:48.793Z,1.85
2023-10-23T19:53:16.895Z,1.83
2023-10-23T19:55:46.841Z,2.20
2023-10-23T19:58:16.666Z,1.90
2023-10-23T20:00:43.838Z,1.92
2023-10-23T20:03:11.416Z,2.20
2023-10-23T20:05:38.646Z,2.20
2023-10-23T20:08:07.065Z,2.28
2023-10-23T20:10:34.429Z,2.40
2023-10-23T20:13:01.636Z,2.10
2023-10-23T20:15:30.508Z,1.90
2023-10-23T20:17:57.724Z,2.00
2023-10-23T20:20:26.623Z,2.10
2023-10-23T20:22:53.848Z,2.33
2023-10-23T20:25:21.319Z,2.45
2023-10-23T20:27:48.519Z,2.63
2023-10-23T20:30:15.632Z,2.50
2023-10-23T20:32:42.864Z,2.28
2023-10-23T20:35:10.209Z,2.67
2023-10-23T20:37:37.478Z,1.77
2023-10-23T20:40:06.187Z,2.25
2023-10-23T20:42:35.454Z,2.50
2023-10-23T20:45:03.897Z,2.30
2023-10-23T20:47:33.389Z,2.42
2023-10-23T20:50:00.757Z,2.28
2023-10-23T20:52:29.465Z,2.13
2023-10-23T20:54:57.546Z,2.10
2023-10-23T20:57:25.148Z,2.15
2023-10-23T20:59:52.353Z,2.78
2023-10-23T21:02:19.464Z,2.40
2023-10-23T21:04:46.526Z,2.17
2023-10-23T21:07:13.605Z,2.35
2023-10-23T21:09:40.878Z,2.40
2023-10-23T21:12:08.299Z,2.97
2023-10-23T21:14:50.004Z,2.90
2023-10-23T21:17:18.147Z,1.92
2023-10-23T21:19:45.240Z,2.38
2023-10-23T21:22:12.414Z,2.80
2023-10-23T21:24:39.512Z,2.50
2023-10-23T21:27:07.389Z,2.53
2023-10-23T21:29:34.461Z,2.75
2023-10-23T21:32:01.769Z,2.60
2023-10-23T21:34:28.903Z,3.05
2023-10-23T21:36:56.059Z,2.40
2023-10-23T21:39:23.182Z,2.80
2023-10-23T21:41:50.258Z,3.42
2023-10-23T21:44:17.276Z,2.63
2023-10-23T21:46:44.311Z,2.50
2023-10-23T21:49:11.826Z,2.58
2023-10-23T21:51:39.409Z,2.45
2023-10-23T21:54:07.065Z,2.45
2023-10-23T21:57:14.984Z,2.55
2023-10-23T21:59:22.554Z,2.55
2023-10-23T22:01:53.414Z,2.50
2023-10-23T22:04:21.555Z,2.40
2023-10-23T22:06:49.236Z,2.78
2023-10-23T22:09:16.785Z,3.15
2023-10-23T22:11:44.538Z,2.60
2023-10-23T22:14:12.143Z,2.55
2023-10-23T22:16:39.305Z,2.70
2023-10-23T22:19:06.544Z,2.45
2023-10-23T22:21:33.717Z,2.53
2023-10-23T22:24:00.711Z,2.42
2023-10-23T22:26:30.277Z,2.38
2023-10-23T22:28:57.248Z,2.33
2023-10-23T22:31:24.325Z,2.33
2023-10-23T22:33:51.341Z,2.13
2023-10-23T22:36:18.344Z,2.45
2023-10-23T22:38:45.351Z,2.47
2023-10-23T22:41:12.359Z,2.88
2023-10-23T22:43:39.394Z,2.35
2023-10-23T22:46:06.522Z,2.38
2023-10-23T22:48:33.638Z,2.25
2023-10-23T22:51:01.409Z,2.33
2023-10-23T22:53:28.989Z,1.98
2023-10-23T22:55:57.152Z,1.63
2023-10-23T22:58:37.505Z,2.05
2023-10-23T23:01:04.834Z,2.00
2023-10-23T23:03:32.824Z,2.47
2023-10-23T23:06:09.820Z,2.20
2023-10-23T23:08:43.515Z,2.10
2023-10-23T23:11:10.984Z,2.20
2023-10-23T23:13:38.314Z,2.70
2023-10-23T23:16:06.653Z,2.05
2023-10-23T23:18:38.438Z,1.70
2023-10-23T23:21:10.495Z,1.73
2023-10-23T23:23:37.571Z,1.90
2023-10-23T23:26:05.839Z,2.47
2023-10-23T23:28:34.696Z,1.85
2023-10-23T23:31:01.822Z,1.98
2023-10-23T23:33:30.130Z,1.73
2023-10-23T23:35:57.234Z,1.60
2023-10-23T23:38:24.457Z,1.65
2023-10-23T23:40:52.908Z,1.52
2023-10-23T23:43:19.942Z,1.98
2023-10-23T23:45:46.989Z,1.65
2023-10-23T23:48:15.445Z,1.60
2023-10-23T23:50:42.569Z,1.63
2023-10-23T23:53:09.541Z,1.35
2023-10-23T23:55:36.550Z,1.77
2023-10-23T23:58:03.572Z,1.88
